Brescia / Montichiari Airport LIPO

Flugplatz Daten

Name: Brescia / Montichiari Airport

Ident: LIPO

Lat: 45,42890167

Long: 10,33059978

Platzhöhe: 355 ft

IataCode: VBS

City: Brescia

Metar

2021/08/05 14:20
LIPO 051420Z AUTO 24008KT 190V270 9999 NCD 29/17 Q1005

Taf

2021/08/05 12:00
TAF LIPO 051100Z 0512/0612 25010KT 9999 FEW040
BECMG 0513/0515 VRB06KT
Gewünschte Webcam nicht vorhanden? Dann fügen Sie eine hinzu. Sie wird dann so schnell wie möglich freigeschaltet
Url: Title: